Skip Navigation Links Skip Navigation Links

Current Weather

Clinton Muni, Clinton, Iowa

For information only: do not use for flight planning or navigation.
Latest weather
Observation time Monday, October 18, 2021 3:56 PM CDT
Local time Monday, October 18, 2021 4:19 PM CDT
Flight conditions Visual Meteorological Conditions
Winds
Wind direction South (180°)
Wind speed 9 mph
Visibility 10 mi.
Sky condition
Ceiling unlimited
Sky clear
Temperature 74°F
Dewpoint 44°F
Altimeter 30.04 in.Hg
Pressure change last 3 hours0.05 in.Hg
Pressure falling more slowly
Derived measurements
Relative humidity 34%
Density altitude 1682 ft.
Sea-level pressure 30.05 in.Hg
Remarks
Fully automated report.
Automated weather observing station with precipitation discriminator.
METAR KCWI 182056Z AUTO 18008KT 10SM CLR 23/07 A3004 RMK AO2 SLP175 T02330067 56017

Settings

Location code

InnerDrive.Weather 4.0.6770.0 Release CLR 4.0.30319.42000
Copyright ©2018 Inner Drive Technology. All rights reserved. Portions Copyright ©1986-2018 David Braverman.

Find weather

Site navigation


Skip Navigation Links

Place info

Page info

PayPal - The safer, easier way to pay online!

Return home.

Copyright ©2021 Inner Drive Technology. Purveyors of fine, hand-crafted computer software. Page printed 2021-10-18T21:19:22 UTC.